Time;durP1;ratioP1;P1;durP2;ratioP2;P2;SDS_P1;SDS_P2;PMS_P1;PMS_P2;Temp;Humidity;BMP_temperature;BMP_pressure;BME280_temperature;BME280_humidity;BME280_pressure;Samples;Min_cycle;Max_cycle;Signal;HPM_P1;HPM_P2
2022/12/08 00:00:12;;;;;;;;;;;1.30;99.90;;;0.40;100.00;96842.94;5061873;28;19963;-45
2022/12/08 00:02:37;;;;;;;;;;;1.40;99.90;;;0.40;100.00;96832.56;5064128;28;19922;-47
2022/12/08 00:10:32;;;;;;;;;;;1.50;99.90;;;0.52;100.00;96831.59;5066289;28;19950;-45
2022/12/08 00:12:57;;;;;;;;;;;1.50;99.90;;;0.53;100.00;96834.19;5068174;28;19920;-45
2022/12/08 00:15:23;;;;;;;;;;;1.50;99.90;;;0.51;100.00;96822.13;5069972;28;19970;-47
2022/12/08 00:17:48;;;;;;;;;;;1.50;99.90;;;0.57;100.00;96830.72;5069857;28;20432;-43
2022/12/08 00:20:14;;;;;;;;;;;1.50;99.90;;;0.59;100.00;96835.03;5066034;28;20005;-46
2022/12/08 00:22:39;;;;;;;;;;;1.50;99.90;;;0.53;100.00;96834.19;5067512;28;20064;-44
2022/12/08 00:25:05;;;;;;;;;;;1.50;99.90;;;0.50;100.00;96829.03;5070166;28;19926;-45
2022/12/08 00:27:31;;;;;;;;;;;1.50;99.90;;;0.41;100.00;96821.28;5057881;28;20320;-47
2022/12/08 00:29:57;;;;;;;;;;;1.40;99.90;;;0.34;100.00;96823.09;5067417;28;19966;-46
2022/12/08 00:32:22;;;;;;;;;;;1.30;99.90;;;0.18;100.00;96814.53;5067670;28;19987;-46
2022/12/08 00:34:48;;;;;;;;;;;1.20;99.90;;;0.03;100.00;96819.78;5067992;28;20044;-44
2022/12/08 00:37:13;;;;;;;;;;;1.00;99.90;;;-0.11;100.00;96821.56;5063363;28;21022;-45
2022/12/08 00:39:39;;;;;;;;;;;0.80;99.90;;;-0.29;100.00;96812.13;5048985;28;20200;-47
2022/12/08 00:42:11;;;;;;;;;;;0.60;99.90;;;-0.43;100.00;96806.97;5061097;28;20363;-43
2022/12/08 00:44:37;;;;;;;;;;;0.50;99.90;;;-0.56;100.00;96813.06;5072735;28;20390;-45
2022/12/08 00:47:02;;;;;;;;;;;0.40;99.90;;;-0.69;100.00;96799.31;5065589;28;20390;-45
2022/12/08 00:49:28;;;;;;;;;;;0.30;99.90;;;-0.74;100.00;96808.81;5069185;28;19926;-46
2022/12/08 00:51:54;;;;;;;;;;;0.20;99.90;;;-0.83;100.00;96802.75;5068731;28;19923;-45
2022/12/08 00:54:21;;;;;;;;;;;0.10;99.90;;;-0.89;100.00;96807.13;5064812;28;19912;-44
2022/12/08 00:56:48;;;;;;;;;;;0.10;99.90;;;-0.94;100.00;96809.69;5064207;28;20384;-43
2022/12/08 00:59:13;;;;;;;;;;;0.00;99.90;;;-1.05;100.00;96806.25;5068731;28;19930;-45
2022/12/08 01:01:39;;;;;;;;;;;-0.10;99.90;;;-1.10;100.00;96808.84;5064196;28;19911;-43
2022/12/08 01:04:07;;;;;;;;;;;-0.20;99.90;;;-1.16;100.00;96806.25;5036133;28;19957;-43
2022/12/08 01:06:36;;;;;;;;;;;-0.20;99.90;;;-1.26;100.00;96796.78;5028202;28;20126;-44
2022/12/08 01:09:03;;;;;;;;;;;-0.30;99.90;;;-1.26;100.00;96800.22;5059252;28;20293;-43
2022/12/08 01:11:28;;;;;;;;;;;-0.30;99.90;;;-1.37;100.00;96797.63;5065332;28;20294;-45
2022/12/08 01:13:54;;;;;;;;;;;-0.40;99.90;;;-1.58;100.00;96774.34;5066560;28;19920;-44
2022/12/08 01:16:21;;;;;;;;;;;-0.40;99.90;;;-1.41;100.00;96806.25;5059747;28;20384;-47
2022/12/08 01:18:47;;;;;;;;;;;-0.50;99.90;;;-1.45;100.00;96806.28;5047913;28;19912;-44
2022/12/08 01:21:12;;;;;;;;;;;-0.50;99.90;;;-1.50;100.00;96803.66;5065813;28;19912;-44
2022/12/08 01:23:38;;;;;;;;;;;-0.50;99.90;;;-1.51;100.00;96808.84;5063011;28;19919;-44
2022/12/08 01:26:05;;;;;;;;;;;-0.60;99.90;;;-1.51;100.00;96796.75;5063764;28;20261;-44
2022/12/08 01:28:31;;;;;;;;;;;-0.50;99.90;;;-1.55;100.00;96806.22;5064609;28;20039;-44
2022/12/08 01:30:58;;;;;;;;;;;-0.50;99.90;;;-1.57;100.00;96805.38;5063725;28;19963;-43
2022/12/08 01:33:24;;;;;;;;;;;-0.60;99.90;;;-1.58;100.00;96800.19;5062402;28;19918;-44
2022/12/08 01:35:49;;;;;;;;;;;-0.60;99.90;;;-1.60;100.00;96805.38;5066115;28;19920;-45
2022/12/08 01:38:15;;;;;;;;;;;-0.60;99.90;;;-1.62;100.00;96812.25;5068230;28;20177;-44
2022/12/08 01:40:40;;;;;;;;;;;-0.50;99.90;;;-1.65;100.00;96801.94;5066524;28;20026;-45
2022/12/08 01:43:12;;;;;;;;;;;-0.60;99.90;;;-1.67;100.00;96798.50;5055999;28;20000;-44
2022/12/08 01:45:37;;;;;;;;;;;-0.70;99.90;;;-1.70;100.00;96806.22;5069551;28;19941;-46
2022/12/08 01:48:06;;;;;;;;;;;-0.70;99.90;;;-1.76;100.00;96798.44;5066856;28;19912;-44
2022/12/08 01:50:32;;;;;;;;;;;-0.70;99.90;;;-1.79;100.00;96793.28;5044129;28;19931;-44
2022/12/08 01:53:08;;;;;;;;;;;-0.70;99.90;;;-1.84;100.00;96798.44;5068224;28;19963;-43
2022/12/08 01:55:38;;;;;;;;;;;-0.80;99.90;;;-2.01;100.00;96769.09;5068528;28;20123;-44
2022/12/08 01:58:11;;;;;;;;;;;-0.80;99.90;;;-1.86;100.00;96795.00;5048243;28;19920;-47
2022/12/08 02:00:36;;;;;;;;;;;-0.80;99.90;;;-1.89;100.00;96794.13;5068289;28;19913;-43
2022/12/08 02:03:06;;;;;;;;;;;-0.90;99.90;;;-1.86;100.00;96789.81;5065431;28;19912;-45
2022/12/08 02:05:37;;;;;;;;;;;-0.90;99.90;;;-1.86;100.00;96792.41;5055069;28;19931;-46
2022/12/08 02:08:06;;;;;;;;;;;-0.90;99.90;;;-1.86;100.00;96784.66;5049036;28;20258;-46
2022/12/08 02:10:35;;;;;;;;;;;-0.90;99.90;;;-1.88;100.00;96780.31;5045525;28;20276;-43
2022/12/08 02:13:02;;;;;;;;;;;-0.90;99.90;;;-1.90;100.00;96777.75;5062400;28;20011;-45
2022/12/08 02:15:58;;;;;;;;;;;-0.90;99.90;;;-1.88;100.00;96780.31;5037046;28;20335;-46
2022/12/08 02:18:42;;;;;;;;;;;-0.90;99.90;;;-1.89;100.00;96779.47;5064620;28;19923;-43
2022/12/08 02:21:18;;;;;;;;;;;-0.90;99.90;;;-1.90;100.00;96775.19;5061012;28;19931;-45
2022/12/08 02:23:57;;;;;;;;;;;-0.90;99.90;;;-1.93;100.00;96751.91;5051362;28;19921;-43
2022/12/08 02:26:53;;;;;;;;;;;-0.90;99.90;;;-1.90;100.00;96757.09;5063663;28;19920;-47
2022/12/08 02:29:31;;;;;;;;;;;-0.90;99.90;;;-1.92;100.00;96758.78;5069939;28;19974;-43
2022/12/08 02:32:44;;;;;;;;;;;-0.90;99.90;;;-1.95;100.00;96757.06;5063470;28;19920;-46
2022/12/08 02:35:22;;;;;;;;;;;-0.90;99.90;;;-1.97;100.00;96745.00;5033463;28;19971;-44
2022/12/08 02:38:21;;;;;;;;;;;-0.90;99.90;;;-1.99;100.00;96746.69;5041673;28;20423;-46
2022/12/08 02:40:59;;;;;;;;;;;-0.90;99.90;;;-2.05;100.00;96732.06;5058544;28;19965;-43
2022/12/08 02:43:43;;;;;;;;;;;-1.00;99.90;;;-1.99;100.00;96739.84;5062866;28;20010;-43
2022/12/08 02:46:13;;;;;;;;;;;-1.00;99.90;;;-1.98;100.00;96743.28;5059992;28;19923;-45
2022/12/08 02:48:39;;;;;;;;;;;-0.90;99.90;;;-2.02;100.00;96734.66;5049210;28;19919;-44
2022/12/08 02:51:04;;;;;;;;;;;-1.00;99.90;;;-2.00;100.00;96740.69;5050796;28;19920;-44
2022/12/08 02:53:31;;;;;;;;;;;-1.00;99.90;;;-2.02;100.00;96741.56;5069029;28;20394;-44
2022/12/08 02:56:03;;;;;;;;;;;-1.00;99.90;;;-2.03;100.00;96739.81;5051949;28;19927;-43
2022/12/08 02:58:41;;;;;;;;;;;-1.00;99.90;;;-2.04;100.00;96738.97;5067550;28;19922;-45
2022/12/08 03:01:24;;;;;;;;;;;-1.00;99.90;;;-2.09;100.00;96743.25;5053131;28;20058;-45
2022/12/08 03:04:01;;;;;;;;;;;-1.00;99.90;;;-2.12;100.00;96741.53;5044846;28;20018;-44
2022/12/08 03:06:34;;;;;;;;;;;-1.00;99.90;;;-2.15;100.00;96733.78;5067117;28;19924;-45
2022/12/08 03:09:17;;;;;;;;;;;-1.10;99.90;;;-2.09;100.00;96739.81;5048819;28;19918;-43
2022/12/08 03:11:50;;;;;;;;;;;-1.10;99.90;;;-2.10;100.00;96733.75;5062472;28;20470;-46
2022/12/08 03:14:16;;;;;;;;;;;-1.10;99.90;;;-2.12;100.00;96727.72;5053386;28;20012;-44
2022/12/08 03:16:45;;;;;;;;;;;-1.10;99.90;;;-2.11;100.00;96727.75;5062187;28;19915;-47
2022/12/08 03:19:23;;;;;;;;;;;-1.10;99.90;;;-2.13;100.00;96724.31;5048600;28;19927;-45
2022/12/08 03:22:02;;;;;;;;;;;-1.10;99.90;;;-2.13;100.00;96726.03;5059939;28;19927;-45
2022/12/08 03:24:30;;;;;;;;;;;-1.10;99.90;;;-2.13;100.00;96729.47;5047737;28;20541;-44
2022/12/08 03:27:00;;;;;;;;;;;-1.10;99.90;;;-2.16;100.00;96724.28;5061624;28;19921;-44
2022/12/08 03:29:26;;;;;;;;;;;-1.10;99.90;;;-2.23;100.00;96708.78;5067918;28;19920;-47
2022/12/08 03:31:55;;;;;;;;;;;-1.10;99.90;;;-2.20;100.00;96713.97;5067805;28;19935;-46
2022/12/08 03:34:24;;;;;;;;;;;-1.10;99.90;;;-2.23;100.00;96703.59;5045599;28;19912;-44
2022/12/08 03:36:49;;;;;;;;;;;-1.20;99.90;;;-2.25;100.00;96706.19;5038250;28;19915;-43
2022/12/08 03:39:15;;;;;;;;;;;-1.20;99.90;;;-2.27;100.00;96707.06;5064754;28;19920;-43
2022/12/08 03:41:40;;;;;;;;;;;-1.20;99.90;;;-2.37;100.00;96693.25;5064038;28;19954;-44
2022/12/08 03:44:06;;;;;;;;;;;-1.20;99.90;;;-2.35;100.00;96712.19;5068750;28;20799;-45
2022/12/08 03:46:32;;;;;;;;;;;-1.30;99.90;;;-2.36;100.00;96703.56;5061555;28;19927;-45
2022/12/08 03:48:57;;;;;;;;;;;-1.30;99.90;;;-2.37;100.00;96695.81;5052284;28;19972;-45
2022/12/08 03:51:23;;;;;;;;;;;-1.30;99.90;;;-2.37;100.00;96698.41;5063442;28;20042;-43
2022/12/08 03:53:49;;;;;;;;;;;-1.30;99.90;;;-2.42;100.00;96694.94;5066203;28;19919;-44
2022/12/08 03:56:30;;;;;;;;;;;-1.30;99.90;;;-2.40;100.00;96696.69;5058804;28;20334;-44
2022/12/08 03:58:56;;;;;;;;;;;-1.30;99.90;;;-2.41;100.00;96697.53;5058347;28;20407;-45
2022/12/08 04:01:21;;;;;;;;;;;-1.30;99.90;;;-2.44;100.00;96692.38;5055744;28;19926;-45
2022/12/08 04:03:47;;;;;;;;;;;-1.40;99.90;;;-2.58;100.00;96663.94;5062801;28;19962;-46
2022/12/08 04:06:13;;;;;;;;;;;-1.40;99.90;;;-2.42;100.00;96690.66;5058476;28;19915;-44
2022/12/08 04:08:39;;;;;;;;;;;-1.40;99.90;;;-2.43;100.00;96688.06;5062842;28;20833;-47
2022/12/08 04:11:07;;;;;;;;;;;-1.30;99.90;;;-2.44;100.00;96676.88;5059233;28;19912;-46
2022/12/08 04:13:34;;;;;;;;;;;-1.40;99.90;;;-2.44;100.00;96679.47;5056622;28;19912;-46
2022/12/08 04:16:00;;;;;;;;;;;-1.40;99.90;;;-2.50;100.00;96676.84;5058622;28;19915;-45
2022/12/08 04:18:25;;;;;;;;;;;-1.40;99.90;;;-2.52;100.00;96679.44;5061397;28;19924;-45
2022/12/08 04:20:51;;;;;;;;;;;-1.40;99.90;;;-2.51;100.00;96677.72;5069223;28;20483;-44
2022/12/08 04:23:17;;;;;;;;;;;-1.40;99.90;;;-2.54;100.00;96675.13;5066236;28;19916;-47
2022/12/08 04:25:42;;;;;;;;;;;-1.40;99.90;;;-2.55;100.00;96674.28;5068940;28;20058;-45
2022/12/08 04:28:08;;;;;;;;;;;-1.40;99.90;;;-2.56;100.00;96667.38;5069581;22;20011;-58
2022/12/08 04:30:34;;;;;;;;;;;-1.40;99.90;;;-2.53;100.00;96676.84;5050859;28;19981;-58
2022/12/08 04:33:00;;;;;;;;;;;-1.50;99.90;;;-2.52;100.00;96671.69;5052612;28;19916;-58
2022/12/08 04:35:26;;;;;;;;;;;-1.50;99.90;;;-2.55;100.00;96669.13;5047318;28;19912;-58
2022/12/08 04:37:52;;;;;;;;;;;-1.50;99.90;;;-2.56;100.00;96672.53;5032432;28;22293;-58
2022/12/08 04:40:17;;;;;;;;;;;-1.50;99.90;;;-2.56;100.00;96676.84;5029001;28;19917;-57
2022/12/08 04:42:43;;;;;;;;;;;-1.50;99.90;;;-2.55;100.00;96670.81;5029975;28;19913;-58
2022/12/08 04:45:09;;;;;;;;;;;-1.50;99.90;;;-2.58;100.00;96669.09;5023308;28;19983;-58
2022/12/08 04:47:35;;;;;;;;;;;-1.50;99.90;;;-2.57;100.00;96670.81;5024410;28;20208;-57
2022/12/08 04:50:00;;;;;;;;;;;-1.50;99.90;;;-2.61;100.00;96658.75;5011015;28;20400;-57
2022/12/08 04:52:26;;;;;;;;;;;-1.50;99.90;;;-2.62;100.00;96658.75;5011809;28;19921;-58
2022/12/08 04:54:52;;;;;;;;;;;-1.50;99.90;;;-2.62;100.00;96669.94;5031000;28;19920;-58
2022/12/08 04:57:17;;;;;;;;;;;-1.50;99.90;;;-2.66;100.00;96664.75;5022581;28;19921;-57
2022/12/08 04:59:43;;;;;;;;;;;-1.50;99.90;;;-2.65;100.00;96656.19;5009946;28;20940;-57
2022/12/08 05:02:08;;;;;;;;;;;-1.50;99.90;;;-2.65;100.00;96659.63;5023713;28;20372;-58
2022/12/08 05:04:34;;;;;;;;;;;-1.50;99.90;;;-2.73;100.00;96649.28;5023442;28;20148;-57
2022/12/08 05:07:00;;;;;;;;;;;-1.50;99.90;;;-2.69;100.00;96655.31;5025792;28;20011;-59
2022/12/08 05:09:25;;;;;;;;;;;-1.60;99.90;;;-2.67;100.00;96652.69;5023964;28;19912;-58
2022/12/08 05:11:51;;;;;;;;;;;-1.60;99.90;;;-2.70;100.00;96644.09;5024845;28;19913;-59
2022/12/08 05:14:17;;;;;;;;;;;-1.60;99.90;;;-2.70;100.00;96648.41;5015220;28;19912;-59
2022/12/08 05:16:44;;;;;;;;;;;-1.60;99.90;;;-2.72;100.00;96644.97;5022816;28;20187;-58
2022/12/08 05:19:09;;;;;;;;;;;-1.60;99.90;;;-2.72;100.00;96639.81;5017983;28;20431;-58
2022/12/08 05:21:35;;;;;;;;;;;-1.60;99.90;;;-2.71;100.00;96646.66;5019837;28;19928;-58
2022/12/08 05:24:00;;;;;;;;;;;-1.60;99.90;;;-2.71;100.00;96641.50;5021833;28;20055;-58
2022/12/08 05:26:26;;;;;;;;;;;-1.60;99.90;;;-2.80;100.00;96624.31;5024050;28;20132;-58
2022/12/08 05:28:52;;;;;;;;;;;-1.60;99.90;;;-2.71;100.00;96641.50;5000859;28;19916;-59
2022/12/08 05:31:17;;;;;;;;;;;-1.60;99.90;;;-2.73;100.00;96640.66;5005996;28;20019;-58
2022/12/08 05:33:44;;;;;;;;;;;-1.70;99.90;;;-2.73;100.00;96641.53;5007929;28;19955;-58
2022/12/08 05:36:12;;;;;;;;;;;-1.70;99.90;;;-2.75;100.00;96645.78;5024629;28;19916;-58
2022/12/08 05:38:38;;;;;;;;;;;-1.60;99.90;;;-2.75;100.00;96645.78;5014668;28;20539;-58
2022/12/08 05:41:18;;;;;;;;;;;-1.70;99.90;;;-2.74;100.00;96651.84;5018795;28;19927;-58
2022/12/08 05:43:43;;;;;;;;;;;-1.60;99.90;;;-2.73;100.00;96648.38;4990093;28;21263;-57
2022/12/08 05:46:09;;;;;;;;;;;-1.60;99.90;;;-2.71;100.00;96652.72;5014341;28;19925;-57
2022/12/08 05:48:36;;;;;;;;;;;-1.60;99.90;;;-2.78;100.00;96639.75;5008719;28;19939;-57
2022/12/08 05:51:01;;;;;;;;;;;-1.60;99.90;;;-2.73;100.00;96645.81;5026454;28;20011;-58
2022/12/08 05:53:27;;;;;;;;;;;-1.60;99.90;;;-2.73;100.00;96644.13;5017009;28;19926;-57
2022/12/08 05:55:52;;;;;;;;;;;-1.60;99.90;;;-2.69;100.00;96644.97;5022104;28;19956;-57
2022/12/08 05:58:21;;;;;;;;;;;-1.60;99.90;;;-2.67;100.00;96647.53;5020005;28;20549;-58
2022/12/08 06:00:47;;;;;;;;;;;-1.60;99.90;;;-2.66;100.00;96641.53;5026756;28;19921;-59
2022/12/08 06:03:14;;;;;;;;;;;-1.60;99.90;;;-2.68;100.00;96641.53;5023960;28;19928;-59
2022/12/08 06:05:41;;;;;;;;;;;-1.60;99.90;;;-2.66;100.00;96650.13;5017128;28;20427;-58
2022/12/08 06:08:07;;;;;;;;;;;-1.60;99.90;;;-2.83;100.00;96621.69;5024914;28;19913;-59
2022/12/08 06:10:33;;;;;;;;;;;-1.60;99.90;;;-2.70;100.00;96638.09;5026715;28;20179;-59
2022/12/08 06:12:59;;;;;;;;;;;-1.60;99.90;;;-2.71;100.00;96628.59;5019836;28;19920;-59
2022/12/08 06:15:25;;;;;;;;;;;-1.60;99.90;;;-2.70;100.00;96643.25;5020836;28;20464;-59
2022/12/08 06:17:50;;;;;;;;;;;-1.70;99.90;;;-2.69;100.00;96639.81;5021242;28;19931;-59
2022/12/08 06:20:16;;;;;;;;;;;-1.60;99.90;;;-2.72;100.00;96639.81;5029295;28;19927;-59
2022/12/08 06:22:41;;;;;;;;;;;-1.60;99.90;;;-2.73;100.00;96633.78;5027142;28;19917;-59
2022/12/08 06:25:08;;;;;;;;;;;-1.60;99.90;;;-2.69;100.00;96639.81;5023650;28;20168;-59
2022/12/08 06:27:34;;;;;;;;;;;-1.70;99.90;;;-2.73;100.00;96631.22;5026142;28;20416;-59
2022/12/08 06:30:00;;;;;;;;;;;-1.70;99.90;;;-2.72;100.00;96635.50;5024016;28;19917;-59
2022/12/08 06:32:26;;;;;;;;;;;-1.70;99.90;;;-2.72;100.00;96635.50;5030975;28;19926;-59
2022/12/08 06:34:51;;;;;;;;;;;-1.60;99.90;;;-2.71;100.00;96638.94;5030643;28;19959;-59
2022/12/08 06:37:17;;;;;;;;;;;-1.60;99.90;;;-2.73;100.00;96635.47;5032842;28;19913;-59
2022/12/08 06:39:43;;;;;;;;;;;-1.60;99.90;;;-2.68;100.00;96638.94;5022314;28;19912;-59
2022/12/08 06:44:53;;;;;;;;;;;-1.60;99.90;;;-2.67;100.00;96640.69;5008971;28;19931;-59
2022/12/08 06:47:22;;;;;;;;;;;-1.60;99.90;;;-2.69;100.00;96638.09;5008772;28;20158;-59
2022/12/08 06:49:47;;;;;;;;;;;-1.60;99.90;;;-2.68;100.00;96646.69;5018916;28;20129;-59
2022/12/08 06:52:14;;;;;;;;;;;-1.60;99.90;;;-2.70;100.00;96651.00;5022020;28;20462;-59
2022/12/08 06:54:39;;;;;;;;;;;-1.60;99.90;;;-2.70;100.00;96645.81;5021148;28;19994;-59
2022/12/08 06:57:05;;;;;;;;;;;-1.60;99.90;;;-2.70;100.00;96648.41;5017595;28;19927;-59
2022/12/08 06:59:31;;;;;;;;;;;-1.60;99.90;;;-2.72;100.00;96650.13;5013238;28;19924;-59
2022/12/08 07:01:57;;;;;;;;;;;-1.60;99.90;;;-2.71;100.00;96641.50;4999080;28;19951;-59
2022/12/08 07:04:22;;;;;;;;;;;-1.60;99.90;;;-2.67;100.00;96647.53;4992442;28;20161;-59
2022/12/08 07:06:48;;;;;;;;;;;-1.60;99.90;;;-2.68;100.00;96646.69;5012018;28;20240;-59
2022/12/08 07:09:14;;;;;;;;;;;-1.60;99.90;;;-2.69;100.00;96643.25;5016269;28;19912;-60
2022/12/08 07:11:39;;;;;;;;;;;-1.60;99.90;;;-2.67;100.00;96645.84;5011663;28;20239;-59
2022/12/08 07:14:05;;;;;;;;;;;-1.60;99.90;;;-2.65;100.00;96646.69;5017569;28;20066;-59
2022/12/08 07:16:31;;;;;;;;;;;-1.60;99.90;;;-2.66;100.00;96655.28;5013858;28;19912;-59
2022/12/08 07:18:56;;;;;;;;;;;-1.60;99.90;;;-2.65;100.00;96651.88;5021672;28;20364;-59
2022/12/08 07:21:22;;;;;;;;;;;-1.60;99.90;;;-2.63;100.00;96647.56;5014562;28;20301;-60
2022/12/08 07:23:48;;;;;;;;;;;-1.50;99.90;;;-2.60;100.00;96645.00;5015731;28;19916;-60
2022/12/08 07:26:14;;;;;;;;;;;-1.50;99.90;;;-2.56;100.00;96649.31;5011686;28;19912;-59
2022/12/08 07:28:41;;;;;;;;;;;-1.50;99.90;;;-2.55;100.00;96645.00;5013579;28;19923;-59
2022/12/08 07:31:08;;;;;;;;;;;-1.50;99.90;;;-2.56;100.00;96651.88;5015877;28;19917;-60
2022/12/08 07:33:34;;;;;;;;;;;-1.50;99.90;;;-2.50;100.00;96656.19;4997302;28;19929;-60
2022/12/08 07:36:03;;;;;;;;;;;-1.50;99.90;;;-2.59;100.00;96631.22;5016655;28;19944;-58
2022/12/08 07:38:30;;;;;;;;;;;-1.40;99.90;;;-2.43;100.00;96657.09;5004613;28;19921;-58
2022/12/08 07:40:55;;;;;;;;;;;-1.40;99.90;;;-2.41;100.00;96651.06;5018013;28;19943;-58
2022/12/08 07:43:22;;;;;;;;;;;-1.40;99.90;;;-2.34;100.00;96654.53;5014506;28;20394;-58
2022/12/08 07:45:48;;;;;;;;;;;-1.30;99.90;;;-2.31;100.00;96654.53;5011611;28;19951;-58
2022/12/08 07:48:14;;;;;;;;;;;-1.30;99.90;;;-2.26;100.00;96650.25;5015549;28;19920;-58
2022/12/08 07:50:40;;;;;;;;;;;-1.20;99.90;;;-2.23;100.00;96649.38;5015410;28;19977;-58
2022/12/08 07:53:06;;;;;;;;;;;-1.20;99.90;;;-2.19;100.00;96651.09;5018009;28;19912;-58
2022/12/08 07:55:31;;;;;;;;;;;-1.20;99.90;;;-2.15;100.00;96652.84;5020958;28;20360;-58
2022/12/08 07:57:57;;;;;;;;;;;-1.20;99.90;;;-2.14;100.00;96649.38;5022417;28;19921;-58
2022/12/08 08:00:23;;;;;;;;;;;-1.10;99.90;;;-2.09;100.00;96652.81;5012554;28;20880;-58
2022/12/08 08:02:48;;;;;;;;;;;-1.10;99.90;;;-2.02;100.00;96656.28;5021126;28;19916;-58
2022/12/08 08:05:14;;;;;;;;;;;-1.00;99.90;;;-2.09;100.00;96626.13;5008923;28;20025;-58
2022/12/08 08:07:45;;;;;;;;;;;-0.90;99.90;;;-1.96;100.00;96639.03;5014805;28;20089;-58
2022/12/08 08:10:11;;;;;;;;;;;-0.90;99.90;;;-1.90;100.00;96650.25;5002361;28;20041;-58
2022/12/08 08:12:37;;;;;;;;;;;-0.80;99.90;;;-1.86;100.00;96633.88;5017244;28;20153;-58
2022/12/08 08:15:06;;;;;;;;;;;-0.80;99.90;;;-1.81;100.00;96634.72;5020143;28;19920;-58
2022/12/08 08:17:32;;;;;;;;;;;-0.70;99.90;;;-1.90;100.00;96602.03;5015545;28;20290;-58
2022/12/08 08:19:58;;;;;;;;;;;-0.70;99.90;;;-1.72;100.00;96634.75;5019226;28;19920;-58
2022/12/08 08:22:25;;;;;;;;;;;-0.70;99.90;;;-1.68;100.00;96626.13;5027677;28;19920;-59
2022/12/08 08:24:50;;;;;;;;;;;-0.60;99.90;;;-1.62;100.00;96633.00;5014003;28;20528;-58
2022/12/08 08:27:16;;;;;;;;;;;-0.60;99.90;;;-1.58;100.00;96633.00;5031857;28;19921;-58
2022/12/08 08:29:41;;;;;;;;;;;-0.50;99.90;;;-1.53;100.00;96632.97;5025243;28;19917;-58
2022/12/08 08:32:07;;;;;;;;;;;-0.50;99.90;;;-1.48;100.00;96631.25;5021344;28;19921;-58
2022/12/08 08:34:33;;;;;;;;;;;-0.40;99.90;;;-1.42;100.00;96632.97;5031565;28;19994;-58
2022/12/08 08:36:58;;;;;;;;;;;-0.40;99.90;;;-1.37;100.00;96639.84;5032807;28;20074;-58
2022/12/08 08:39:24;;;;;;;;;;;-0.30;99.90;;;-1.33;100.00;96639.84;5029152;28;19921;-58
2022/12/08 08:41:49;;;;;;;;;;;-0.30;99.90;;;-1.28;100.00;96632.94;5027710;28;19917;-59
2022/12/08 08:44:15;;;;;;;;;;;-0.20;99.90;;;-1.24;100.00;96638.09;5028669;28;20378;-58
2022/12/08 08:46:41;;;;;;;;;;;-0.20;99.90;;;-1.33;100.00;96617.41;5026943;28;19916;-58
2022/12/08 08:49:06;;;;;;;;;;;-0.20;99.90;;;-1.14;100.00;96636.34;5031409;28;19955;-58
2022/12/08 08:51:32;;;;;;;;;;;-0.10;99.90;;;-1.11;100.00;96630.28;5023852;28;19913;-58
2022/12/08 08:53:58;;;;;;;;;;;-0.10;99.90;;;-1.08;100.00;96640.63;5013658;28;19967;-59
2022/12/08 08:56:24;;;;;;;;;;;0.00;99.90;;;-1.04;100.00;96631.97;5026692;28;19920;-59
2022/12/08 08:58:50;;;;;;;;;;;0.10;99.90;;;-1.00;100.00;96639.75;5027444;28;20006;-58
2022/12/08 09:01:22;;;;;;;;;;;0.00;99.90;;;-0.94;100.00;96635.41;5016368;28;19920;-58
2022/12/08 09:03:48;;;;;;;;;;;0.10;99.90;;;-0.91;100.00;96633.69;5030493;28;20337;-59
2022/12/08 09:06:14;;;;;;;;;;;0.10;99.90;;;-0.86;100.00;96631.94;5027046;28;19920;-58
2022/12/08 09:08:40;;;;;;;;;;;0.20;99.90;;;-0.84;100.00;96630.19;5023879;28;20295;-58
2022/12/08 09:11:06;;;;;;;;;;;0.20;99.90;;;-0.80;100.00;96620.69;5029669;28;19928;-58
2022/12/08 09:13:32;;;;;;;;;;;0.30;99.90;;;-0.77;100.00;96618.94;5026965;28;19920;-54
2022/12/08 09:16:00;;;;;;;;;;;0.30;99.90;;;-0.72;100.00;96615.47;5028753;28;20555;-60
2022/12/08 09:18:26;;;;;;;;;;;0.30;99.90;;;-0.69;100.00;96613.72;5028343;28;19967;-60
2022/12/08 09:20:53;;;;;;;;;;;0.40;99.90;;;-0.65;100.00;96612.81;5030409;28;20015;-60
2022/12/08 09:23:18;;;;;;;;;;;0.40;99.90;;;-0.58;100.00;96611.91;5031440;28;19964;-60
2022/12/08 09:25:44;;;;;;;;;;;0.50;99.90;;;-0.53;100.00;96605.88;5024195;28;20015;-60
2022/12/08 09:28:10;;;;;;;;;;;0.50;99.90;;;-0.52;100.00;96607.56;5032802;28;19928;-60
2022/12/08 09:30:36;;;;;;;;;;;0.50;99.90;;;-0.49;100.00;96612.75;5031689;28;20007;-60
2022/12/08 09:33:02;;;;;;;;;;;0.60;99.90;;;-0.47;100.00;96611.84;5035402;28;21228;-58
2022/12/08 09:35:27;;;;;;;;;;;0.60;99.90;;;-0.48;100.00;96601.53;5031159;28;20015;-59
2022/12/08 09:37:53;;;;;;;;;;;0.60;99.90;;;-0.41;100.00;96609.25;5030680;28;20488;-59
2022/12/08 09:40:20;;;;;;;;;;;0.70;99.90;;;-0.33;100.00;96616.09;5022610;28;19921;-59
2022/12/08 09:42:50;;;;;;;;;;;0.70;99.90;;;-0.27;100.00;96608.28;5030955;28;19921;-59
2022/12/08 09:45:17;;;;;;;;;;;0.80;99.90;;;-0.25;100.00;96612.59;5015208;28;19917;-58
2022/12/08 09:47:47;;;;;;;;;;;0.80;99.90;;;-0.19;100.00;96609.09;5032525;28;19917;-59
2022/12/08 09:50:19;;;;;;;;;;;0.90;99.90;;;-0.16;100.00;96597.84;5010583;28;19939;-58
2022/12/08 09:52:53;;;;;;;;;;;0.90;99.90;;;-0.06;100.00;96602.09;5032904;28;20007;-59
2022/12/08 09:55:25;;;;;;;;;;;1.00;99.90;;;-0.03;100.00;96599.47;5027100;28;19982;-59
2022/12/08 09:57:59;;;;;;;;;;;1.00;99.90;;;0.03;100.00;96594.22;5013825;28;19951;-59
2022/12/08 10:00:24;;;;;;;;;;;1.10;99.90;;;0.06;100.00;96595.94;5006599;28;19967;-59
2022/12/08 10:02:50;;;;;;;;;;;1.10;99.90;;;0.06;100.00;96594.22;5026420;28;19919;-59
2022/12/08 10:05:16;;;;;;;;;;;1.10;99.90;;;0.09;100.00;96591.59;5027419;28;19938;-58
2022/12/08 10:07:47;;;;;;;;;;;1.20;99.90;;;0.13;100.00;96590.69;5021176;28;19921;-58
2022/12/08 10:10:37;;;;;;;;;;;1.20;99.90;;;0.16;100.00;96588.09;5022058;28;19931;-58
2022/12/08 10:13:06;;;;;;;;;;;1.20;99.90;;;0.19;100.00;96582.84;5009756;28;19978;-59
2022/12/08 10:15:40;;;;;;;;;;;1.30;99.90;;;0.23;100.00;96573.31;5014515;28;19913;-58
2022/12/08 10:18:13;;;;;;;;;;;1.30;99.90;;;0.28;100.00;96571.53;5026636;28;20294;-58
2022/12/08 10:20:41;;;;;;;;;;;1.30;99.90;;;0.38;100.00;96577.50;5028991;28;19974;-59
2022/12/08 10:23:45;;;;;;;;;;;1.40;99.90;;;0.43;100.00;96573.13;5035535;28;19924;-59
2022/12/08 10:26:13;;;;;;;;;;;1.50;99.90;;;0.55;100.00;96572.97;4956894;28;19977;-58
2022/12/08 10:28:39;;;;;;;;;;;1.60;99.90;;;0.62;100.00;96557.34;5045939;22;19958;-43
2022/12/08 10:31:04;;;;;;;;;;;1.70;99.90;;;0.82;100.00;96570.09;5066267;28;20002;-45
2022/12/08 10:33:31;;;;;;;;;;;1.80;99.90;;;1.01;100.00;96566.41;5069497;28;20023;-44
2022/12/08 10:36:00;;;;;;;;;;;2.00;99.90;;;1.25;100.00;96564.38;5069433;28;20086;-44
2022/12/08 10:38:30;;;;;;;;;;;2.30;99.90;;;1.38;100.00;96541.66;5061113;28;19920;-44
2022/12/08 10:41:02;;;;;;;;;;;2.50;99.90;;;1.81;100.00;96562.69;5050267;28;20308;-44
2022/12/08 10:43:28;;;;;;;;;;;2.80;99.90;;;2.04;100.00;96551.88;5036988;28;19982;-44
2022/12/08 10:45:54;;;;;;;;;;;3.10;99.90;;;2.31;100.00;96565.31;5033904;28;20379;-43
2022/12/08 10:48:30;;;;;;;;;;;3.40;99.90;;;2.58;100.00;96557.88;5048993;28;19946;-44
2022/12/08 10:50:56;;;;;;;;;;;3.50;99.90;;;2.76;100.00;96557.53;5053036;28;19919;-45
2022/12/08 10:53:22;;;;;;;;;;;3.70;99.90;;;2.96;100.00;96558.88;5057505;28;19977;-44
2022/12/08 10:56:11;;;;;;;;;;;3.90;99.90;;;3.16;100.00;96551.53;5048900;28;20296;-44
2022/12/08 10:58:44;;;;;;;;;;;4.10;99.90;;;3.35;100.00;96551.13;5033029;28;19912;-44
2022/12/08 11:01:33;;;;;;;;;;;4.20;99.90;;;3.42;100.00;96547.50;5051769;28;19924;-44
2022/12/08 11:04:04;;;;;;;;;;;4.40;99.90;;;3.52;100.00;96546.41;5054052;28;19916;-47
2022/12/08 11:06:39;;;;;;;;;;;4.50;99.90;;;3.57;100.00;96543.66;5035877;28;20222;-43
2022/12/08 11:09:17;;;;;;;;;;;4.50;99.90;;;3.61;100.00;96537.50;5036382;28;20010;-45
2022/12/08 11:11:49;;;;;;;;;;;4.50;99.90;;;3.69;100.00;96532.09;5051222;28;20022;-45
2022/12/08 11:14:21;;;;;;;;;;;4.60;99.90;;;3.70;100.00;96515.59;5017792;28;20339;-44
2022/12/08 11:16:48;;;;;;;;;;;4.70;99.90;;;3.77;100.00;96519.75;5053601;28;20007;-45
2022/12/08 11:19:15;;;;;;;;;;;4.70;99.90;;;3.81;100.00;96514.41;5049212;28;19916;-43
2022/12/08 11:21:44;;;;;;;;;;;4.70;99.90;;;3.85;100.00;96511.75;5052430;28;19916;-45
2022/12/08 11:24:20;;;;;;;;;;;4.70;99.90;;;3.77;100.00;96504.97;5054884;28;20197;-43